Time;durP1;ratioP1;P1;durP2;ratioP2;P2;SDS_P1;SDS_P2;PMS_P1;PMS_P2;Temp;Humidity;BMP_temperature;BMP_pressure;BME280_temperature;BME280_humidity;BME280_pressure;Samples;Min_cycle;Max_cycle;Signal;HPM_P1;HPM_P2
2022/03/20 00:01:23;;;;;;;67.40;36.30;;;;;;;-0.22;48.23;103617.57;1614600;88;28401;-76
2022/03/20 00:03:49;;;;;;;66.72;35.40;;;;;;;-0.24;48.33;103617.62;1613913;88;25968;-77
2022/03/20 00:06:15;;;;;;;68.75;35.30;;;;;;;-0.26;48.47;103615.48;1614939;88;25885;-76
2022/03/20 00:08:41;;;;;;;76.15;36.38;;;;;;;-0.27;48.37;103612.87;1615916;88;26699;-76
2022/03/20 00:11:08;;;;;;;80.77;41.10;;;;;;;-0.27;48.47;103604.97;1613586;88;25856;-78
2022/03/20 00:13:34;;;;;;;90.45;43.60;;;;;;;-0.25;48.46;103617.64;1614404;88;27467;-77
2022/03/20 00:16:01;;;;;;;94.97;43.50;;;;;;;-0.23;48.63;103613.20;1616145;88;25896;-77
2022/03/20 00:18:27;;;;;;;93.35;45.85;;;;;;;-0.24;48.58;103605.77;1588857;90;25790;-76
2022/03/20 00:20:58;;;;;;;83.00;40.73;;;;;;;-0.25;48.66;103613.25;1616267;88;25878;-76
2022/03/20 00:23:25;;;;;;;72.08;36.05;;;;;;;-0.31;48.70;103609.48;1614968;88;26125;-78
2022/03/20 00:25:53;;;;;;;71.87;35.08;;;;;;;-0.44;48.91;103608.55;1614544;88;28067;-77
2022/03/20 00:28:25;;;;;;;67.15;33.63;;;;;;;-0.56;49.13;103608.89;1614473;88;25839;-76
2022/03/20 00:30:53;;;;;;;65.70;31.07;;;;;;;-0.63;49.45;103607.33;1616022;88;25867;-76
2022/03/20 00:33:19;;;;;;;62.05;31.57;;;;;;;-0.71;49.75;103614.13;1613528;88;26492;-78
2022/03/20 00:35:45;;;;;;;71.40;34.98;;;;;;;-0.73;49.74;103612.44;1614921;87;25925;-76
2022/03/20 00:38:12;;;;;;;71.57;33.90;;;;;;;-0.77;49.82;103606.84;1614656;88;27472;-78
2022/03/20 00:40:38;;;;;;;69.75;33.28;;;;;;;-0.77;50.03;103608.16;1614258;88;26068;-77
2022/03/20 00:43:05;;;;;;;65.90;34.80;;;;;;;-0.77;50.19;103612.11;1614567;88;25997;-76
2022/03/20 00:45:33;;;;;;;68.65;34.43;;;;;;;-0.79;50.26;103610.37;1602633;88;26551;-77
2022/03/20 00:48:00;;;;;;;76.53;36.95;;;;;;;-0.80;50.44;103614.37;1614843;88;25847;-76
2022/03/20 00:50:28;;;;;;;72.05;33.90;;;;;;;-0.81;50.59;103620.08;1614221;88;27482;-77
2022/03/20 00:52:56;;;;;;;66.90;32.05;;;;;;;-0.86;50.72;103623.30;1615230;88;25871;-79
2022/03/20 00:55:23;;;;;;;65.95;33.13;;;;;;;-0.92;50.86;103624.75;1609763;88;25863;-77
2022/03/20 00:57:49;;;;;;;67.60;34.60;;;;;;;-0.98;51.06;103619.65;1615751;88;26000;-77
2022/03/20 01:00:16;;;;;;;69.55;37.03;;;;;;;-1.03;51.09;103620.24;1616467;88;25932;-77
2022/03/20 01:02:45;;;;;;;80.67;38.50;;;;;;;-1.06;51.19;103614.17;1592636;88;28438;-77
2022/03/20 01:05:12;;;;;;;85.10;40.58;;;;;;;-1.05;51.33;103615.91;1615782;88;25755;-76
2022/03/20 01:07:39;;;;;;;79.85;41.37;;;;;;;-1.05;51.10;103618.07;1615503;88;26446;-77
2022/03/20 01:10:07;;;;;;;84.03;42.00;;;;;;;-1.04;51.33;103618.94;1593752;89;26525;-77
2022/03/20 01:12:35;;;;;;;83.75;41.08;;;;;;;-1.03;51.08;103619.37;1606257;88;26030;-77
2022/03/20 01:15:04;;;;;;;87.80;44.05;;;;;;;-1.04;51.12;103631.66;1615211;88;27710;-77
2022/03/20 01:17:31;;;;;;;88.75;41.28;;;;;;;-1.03;50.97;103623.31;1603536;88;25859;-77
2022/03/20 01:19:57;;;;;;;92.72;46.08;;;;;;;-1.03;50.99;103621.55;1615241;88;25888;-77
2022/03/20 01:22:23;;;;;;;96.78;47.65;;;;;;;-1.03;51.00;103617.61;1613175;88;26477;-77
2022/03/20 01:24:49;;;;;;;87.78;44.77;;;;;;;-1.06;51.18;103614.17;1615019;88;26450;-77
2022/03/20 01:27:16;;;;;;;82.62;39.30;;;;;;;-1.00;51.22;103627.16;1615578;88;29113;-77
2022/03/20 01:29:43;;;;;;;80.03;40.20;;;;;;;-1.06;51.43;103624.70;1615300;88;25803;-77
2022/03/20 01:32:10;;;;;;;77.15;39.63;;;;;;;-1.17;51.53;103625.41;1614715;88;25748;-77
2022/03/20 01:34:38;;;;;;;75.83;37.83;;;;;;;-1.25;51.95;103625.61;1611250;87;26620;-77
2022/03/20 01:37:05;;;;;;;81.50;40.08;;;;;;;-1.28;51.85;103626.16;1616166;88;26093;-76
2022/03/20 01:39:32;;;;;;;94.17;44.48;;;;;;;-1.32;51.95;103619.21;1613049;88;27499;-77
2022/03/20 01:41:59;;;;;;;88.03;44.40;;;;;;;-1.32;52.20;103624.47;1587145;90;25991;-77
2022/03/20 01:44:33;;;;;;;87.82;44.93;;;;;;;-1.33;52.45;103624.07;1605654;88;25668;-76
2022/03/20 01:46:59;;;;;;;80.40;40.80;;;;;;;-1.37;52.42;103621.11;1588242;90;25971;-77
2022/03/20 01:49:27;;;;;;;87.65;41.85;;;;;;;-1.43;52.40;103614.69;1613964;88;26490;-77
2022/03/20 01:52:13;;;;;;;79.55;41.23;;;;;;;-1.49;52.75;103616.12;1612848;88;27464;-77
2022/03/20 01:54:48;;;;;;;85.87;40.30;;;;;;;-1.57;52.86;103619.81;1613051;87;25828;-76
2022/03/20 01:57:23;;;;;;;92.05;43.48;;;;;;;-1.67;53.18;103620.06;1587832;90;25973;-76
2022/03/20 01:59:51;;;;;;;87.78;41.70;;;;;;;-1.83;53.40;103615.59;1615039;88;26529;-77
2022/03/20 02:02:19;;;;;;;87.95;42.03;;;;;;;-1.83;53.40;103615.59;1592787;88;25850;-77
2022/03/20 02:04:46;;;;;;;89.30;41.18;;;;;;;-1.81;53.94;103613.80;1614508;87;27479;-77
2022/03/20 02:07:14;;;;;;;91.35;42.43;;;;;;;-1.81;53.94;103613.80;1586447;90;26560;-76
2022/03/20 02:09:41;;;;;;;93.42;46.92;;;;;;;-1.81;53.75;103616.86;1605716;88;25315;-77
2022/03/20 02:12:10;;;;;;;92.20;46.05;;;;;;;-1.81;53.73;103612.92;1614356;88;25837;-77
2022/03/20 02:14:37;;;;;;;103.97;48.33;;;;;;;-1.78;53.84;103612.87;1604249;88;25844;-77
2022/03/20 02:17:04;;;;;;;102.75;49.05;;;;;;;-1.73;53.82;103613.17;1614798;88;27475;-77
2022/03/20 02:19:30;;;;;;;108.92;51.02;;;;;;;-1.69;54.01;103612.67;1625233;87;26464;-77
2022/03/20 02:21:57;;;;;;;111.22;50.85;;;;;;;-1.69;54.10;103603.47;1635920;87;25777;-77
2022/03/20 02:24:44;;;;;;;118.95;55.10;;;;;;;-1.69;54.10;103603.47;1613670;88;26633;-77
2022/03/20 02:27:25;;;;;;;116.82;54.20;;;;;;;-1.65;53.55;103611.22;1615711;88;25922;-77
2022/03/20 02:29:59;;;;;;;119.28;54.70;;;;;;;-1.65;53.55;103611.22;1614572;88;27454;-77
2022/03/20 02:32:28;;;;;;;125.95;57.73;;;;;;;-1.60;54.16;103603.23;1586668;90;26464;-77
2022/03/20 02:34:58;;;;;;;131.50;59.90;;;;;;;-1.60;54.16;103603.23;1614356;88;25572;-77
2022/03/20 02:37:26;;;;;;;126.93;59.17;;;;;;;-1.59;54.29;103602.34;1613559;88;25865;-77
2022/03/20 02:40:00;;;;;;;128.02;60.40;;;;;;;-1.58;54.31;103608.00;1613795;88;26495;-76
2022/03/20 02:42:28;;;;;;;126.65;61.35;;;;;;;-1.59;54.17;103607.16;1587332;88;28295;-77
2022/03/20 02:45:03;;;;;;;124.53;58.30;;;;;;;-1.56;54.26;103611.45;1629258;85;25937;-79
2022/03/20 02:47:33;;;;;;;128.80;60.52;;;;;;;-1.55;54.21;103610.57;1631030;87;26275;-78
2022/03/20 02:50:09;;;;;;;130.25;62.13;;;;;;;-1.56;54.14;103611.45;1629068;87;26471;-76
2022/03/20 02:52:49;;;;;;;129.15;61.68;;;;;;;-1.56;54.27;103608.39;1622748;87;26007;-77
2022/03/20 02:55:20;;;;;;;127.10;59.05;;;;;;;-1.59;54.25;103607.60;1614594;87;27505;-76
2022/03/20 02:57:47;;;;;;;126.22;58.38;;;;;;;-1.62;54.20;103606.34;1615376;87;25866;-77
2022/03/20 03:00:21;;;;;;;128.40;62.45;;;;;;;-1.64;54.15;103606.39;1625011;87;25916;-77
2022/03/20 03:02:50;;;;;;;134.40;63.38;;;;;;;-1.65;54.37;103606.44;1626207;87;25949;-77
2022/03/20 03:05:19;;;;;;;125.42;60.15;;;;;;;-1.66;54.50;103603.38;1619435;87;26518;-77
2022/03/20 03:13:24;;;;;;;131.63;60.33;;;;;;;-1.71;54.71;103610.53;1613213;87;25920;-77
2022/03/20 03:15:52;;;;;;;132.63;59.63;;;;;;;-1.67;54.92;103615.64;1615242;87;26929;-76
2022/03/20 03:18:20;;;;;;;124.92;60.33;;;;;;;-1.74;54.77;103606.20;1616512;87;25914;-77
2022/03/20 03:20:50;;;;;;;125.72;60.17;;;;;;;-1.74;54.77;103606.20;1616271;88;27500;-77
2022/03/20 03:23:17;;;;;;;139.43;61.08;;;;;;;-1.71;55.04;103615.31;1589264;89;25299;-77
2022/03/20 03:25:45;;;;;;;123.85;56.88;;;;;;;-1.72;55.09;103614.91;1614319;88;26552;-76
2022/03/20 03:28:12;;;;;;;120.10;58.38;;;;;;;-1.78;55.21;103615.50;1613456;88;26742;-77
2022/03/20 03:30:43;;;;;;;118.95;57.33;;;;;;;-1.85;55.36;103608.20;1616015;88;25911;-76
2022/03/20 03:33:13;;;;;;;115.05;55.90;;;;;;;-1.88;55.42;103612.67;1615261;87;28376;-77
2022/03/20 03:35:42;;;;;;;118.85;55.30;;;;;;;-1.89;55.53;103610.48;1606540;87;25767;-77
2022/03/20 03:38:16;;;;;;;116.50;56.00;;;;;;;-1.90;55.51;103611.81;1616641;87;25805;-77
2022/03/20 03:40:45;;;;;;;116.62;56.53;;;;;;;-1.88;55.43;103610.88;1626623;86;26600;-77
2022/03/20 03:43:14;;;;;;;122.45;57.73;;;;;;;-1.88;55.43;103610.88;1627650;87;25982;-77
2022/03/20 03:45:43;;;;;;;117.20;57.13;;;;;;;-1.85;55.75;103612.58;1619272;87;28268;-77
2022/03/20 03:48:11;;;;;;;115.92;56.02;;;;;;;-1.85;55.75;103612.58;1614440;88;26550;-77
2022/03/20 03:50:40;;;;;;;123.97;59.53;;;;;;;-1.88;55.26;103613.98;1614823;88;25756;-77
2022/03/20 03:53:09;;;;;;;132.15;58.00;;;;;;;-1.96;55.00;103599.69;1587797;90;26478;-76
2022/03/20 03:55:37;;;;;;;132.37;60.78;;;;;;;-1.88;55.35;103612.20;1613906;88;25928;-77
2022/03/20 03:58:04;;;;;;;130.97;59.48;;;;;;;-1.88;55.39;103606.09;1613991;88;27449;-76
2022/03/20 04:00:32;;;;;;;127.12;60.15;;;;;;;-1.88;55.50;103611.36;1614904;88;26609;-77
2022/03/20 04:02:59;;;;;;;144.00;64.15;;;;;;;-1.91;55.27;103609.66;1605903;88;25834;-76
2022/03/20 04:05:28;;;;;;;137.37;64.55;;;;;;;-1.92;55.17;103607.04;1614767;87;25759;-77
2022/03/20 04:07:54;;;;;;;133.45;65.28;;;;;;;-1.90;55.42;103610.49;1614093;88;25550;-78
2022/03/20 04:10:22;;;;;;;139.28;64.15;;;;;;;-1.89;55.42;103612.23;1587698;90;28215;-77
2022/03/20 04:12:49;;;;;;;130.22;61.68;;;;;;;-1.88;55.41;103612.20;1613076;88;25818;-76
2022/03/20 04:15:21;;;;;;;136.77;64.25;;;;;;;-1.88;55.35;103612.67;1614004;88;25867;-77
2022/03/20 04:17:45;;;;;;;143.70;63.52;;;;;;;-1.89;55.59;103618.36;1615993;88;26457;-77
2022/03/20 04:20:12;;;;;;;130.80;61.35;;;;;;;-1.94;55.67;103614.96;1615144;88;25787;-77
2022/03/20 04:23:42;;;;;;;127.87;61.77;;;;;;;-2.00;55.62;103616.41;1605761;88;27656;-77
2022/03/20 04:25:11;;;;;;;138.43;64.62;;;;;;;-2.07;55.85;103624.00;1586224;90;25846;-77
2022/03/20 04:27:37;;;;;;;126.60;62.55;;;;;;;-2.12;55.95;103620.63;1616295;88;26536;-76
2022/03/20 04:30:04;;;;;;;130.75;61.53;;;;;;;-2.14;55.89;103621.55;1604772;88;25886;-77
2022/03/20 04:32:30;;;;;;;129.82;59.65;;;;;;;-2.18;55.76;103625.98;1615194;88;26218;-78
2022/03/20 04:34:57;;;;;;;136.60;64.67;;;;;;;-2.18;55.82;103633.02;1618657;86;27479;-76
2022/03/20 04:37:24;;;;;;;124.67;58.87;;;;;;;-2.19;55.88;103628.64;1603791;88;25829;-77
2022/03/20 04:39:50;;;;;;;123.92;58.50;;;;;;;-2.22;55.81;103632.19;1616434;88;25879;-77
2022/03/20 04:42:16;;;;;;;132.18;60.85;;;;;;;-2.23;55.86;103640.11;1603721;88;25841;-77
2022/03/20 04:44:43;;;;;;;124.78;59.63;;;;;;;-2.26;55.93;103636.22;1614975;87;25741;-76
2022/03/20 04:58:29;;;;;;;121.02;61.18;;;;;;;-2.26;56.01;103633.59;1616214;88;28942;-76
2022/03/20 05:00:40;;;;;;;129.38;61.20;;;;;;;-2.24;56.37;103639.67;1579360;90;27489;-76
2022/03/20 05:03:06;;;;;;;145.20;66.05;;;;;;;-2.32;56.89;103642.47;1613734;88;26467;-76
2022/03/20 05:05:33;;;;;;;139.90;61.40;;;;;;;-2.32;56.89;103642.47;1587509;88;25425;-76
2022/03/20 05:07:59;;;;;;;142.03;63.42;;;;;;;-2.32;56.99;103649.47;1614812;88;26563;-76
2022/03/20 05:13:21;;;;;;;164.15;70.87;;;;;;;-2.31;56.73;103651.22;1518348;93;27506;-76
2022/03/20 05:15:48;;;;;;;159.63;73.30;;;;;;;-2.27;56.87;103648.51;1591916;89;25832;-75
2022/03/20 05:18:15;;;;;;;147.68;68.65;;;;;;;-2.24;56.91;103653.68;1614794;88;25799;-77
2022/03/20 05:20:44;;;;;;;158.97;72.50;;;;;;;-2.25;56.98;103655.91;1610547;88;25751;-75
2022/03/20 05:23:11;;;;;;;158.27;73.72;;;;;;;-2.26;57.17;103663.78;1622720;87;25841;-75
2022/03/20 05:25:38;;;;;;;156.28;72.50;;;;;;;-2.31;57.30;103663.03;1626626;87;27475;-75
2022/03/20 05:28:04;;;;;;;152.72;68.65;;;;;;;-2.29;57.38;103663.42;1609653;87;25883;-76
2022/03/20 05:30:32;;;;;;;142.03;64.70;;;;;;;-2.28;57.38;103666.45;1613739;87;25871;-76
2022/03/20 05:32:59;;;;;;;136.92;63.55;;;;;;;-2.27;57.51;103672.13;1615858;87;25859;-76
2022/03/20 05:35:26;;;;;;;119.93;58.73;;;;;;;-2.26;57.79;103679.09;1619256;87;25864;-76
2022/03/20 05:37:52;;;;;;;127.82;59.50;;;;;;;-2.27;57.79;103673.89;1620671;87;27469;-78
2022/03/20 05:40:19;;;;;;;128.45;61.53;;;;;;;-2.17;57.89;103686.80;1624263;87;25879;-77
2022/03/20 05:42:46;;;;;;;125.33;59.18;;;;;;;-2.17;57.89;103686.80;1588967;90;25461;-77
2022/03/20 05:45:12;;;;;;;130.25;60.12;;;;;;;-2.14;57.74;103686.76;1618493;87;26596;-76
2022/03/20 05:47:40;;;;;;;121.15;57.62;;;;;;;-2.09;57.73;103687.51;1624855;87;25808;-76
2022/03/20 05:50:08;;;;;;;126.72;60.70;;;;;;;-2.04;57.76;103690.92;1613246;87;27479;-77
2022/03/20 05:52:35;;;;;;;125.47;59.95;;;;;;;-1.98;57.89;103694.73;1621542;87;26124;-76
2022/03/20 05:55:03;;;;;;;123.00;57.23;;;;;;;-1.92;57.96;103691.97;1618037;87;25365;-75
2022/03/20 06:00:28;;;;;;;127.40;55.73;;;;;;;-1.83;58.04;103694.85;1619935;87;26200;-76
2022/03/20 06:02:55;;;;;;;113.77;55.95;;;;;;;-1.81;58.05;103691.30;1624903;87;27488;-76
2022/03/20 06:05:24;;;;;;;126.80;58.55;;;;;;;-1.77;58.10;103692.96;1592229;88;25999;-76
2022/03/20 06:07:52;;;;;;;112.68;54.15;;;;;;;-1.72;58.06;103697.68;1619468;87;25837;-76
2022/03/20 06:10:20;;;;;;;123.92;56.95;;;;;;;-1.67;57.80;103702.84;1615751;87;25838;-76
2022/03/20 06:12:46;;;;;;;125.10;58.87;;;;;;;-1.61;58.23;103709.28;1624873;87;25802;-76
2022/03/20 06:15:13;;;;;;;128.50;60.28;;;;;;;-1.55;58.25;103710.45;1619725;86;28262;-75
2022/03/20 06:17:44;;;;;;;126.78;60.28;;;;;;;-1.46;58.20;103706.75;1617711;87;26361;-76
2022/03/20 06:20:12;;;;;;;;;;;;;;;-1.36;58.08;103706.95;1631502;87;26024;-75
2022/03/20 06:22:39;;;;;;;114.62;56.05;;;;;;;-1.26;58.29;103711.97;1612971;88;25799;-74
2022/03/20 06:25:09;;;;;;;113.42;54.55;;;;;;;-1.16;58.25;103715.26;1616670;87;26060;-76
2022/03/20 06:27:48;;;;;;;120.62;54.70;;;;;;;-1.08;58.08;103711.98;1607381;88;27509;-75
2022/03/20 06:30:16;;;;;;;118.55;55.52;;;;;;;-0.96;58.00;103715.63;1615376;88;25924;-77
2022/03/20 06:32:44;;;;;;;115.65;54.58;;;;;;;-0.86;57.69;103718.48;1609279;88;25359;-75
2022/03/20 06:35:13;;;;;;;103.30;51.63;;;;;;;-0.75;58.06;103720.39;1615678;88;26474;-76
2022/03/20 06:37:43;;;;;;;102.42;52.10;;;;;;;-0.72;58.16;103705.82;1615714;88;25904;-76
2022/03/20 06:40:11;;;;;;;112.75;51.00;;;;;;;-0.53;58.03;103723.31;1614074;88;27494;-77
2022/03/20 06:42:38;;;;;;;105.12;49.70;;;;;;;-0.40;57.63;103724.73;1614473;88;25970;-76
2022/03/20 06:45:08;;;;;;;100.07;53.45;;;;;;;-0.30;57.39;103723.12;1616202;87;25814;-78
2022/03/20 06:47:36;;;;;;;107.50;49.77;;;;;;;-0.17;57.22;103717.10;1620130;87;25858;-75
2022/03/20 06:50:05;;;;;;;94.40;49.50;;;;;;;-0.04;56.82;103722.41;1595841;88;25763;-77
2022/03/20 06:52:31;;;;;;;95.92;49.80;;;;;;;0.08;56.75;103720.77;1601772;87;27638;-75
2022/03/20 06:55:01;;;;;;;102.53;52.55;;;;;;;0.20;56.88;103720.41;1597667;87;25854;-77
2022/03/20 06:57:28;;;;;;;104.25;54.63;;;;;;;0.34;56.73;103722.66;1600886;87;26532;-76
2022/03/20 07:00:01;;;;;;;92.65;50.70;;;;;;;0.47;56.71;103724.86;1589029;88;26550;-76
2022/03/20 07:02:28;;;;;;;90.22;47.10;;;;;;;0.61;56.42;103724.45;1608248;87;26079;-77
2022/03/20 07:04:55;;;;;;;81.47;43.05;;;;;;;0.77;56.64;103736.24;1621452;87;28434;-76
2022/03/20 07:07:25;;;;;;;91.92;46.92;;;;;;;0.90;56.14;103726.20;1596664;88;26081;-76
2022/03/20 07:09:51;;;;;;;;;;;;;;;1.05;56.05;103727.86;1616635;87;25883;-76
2022/03/20 07:12:18;;;;;;;75.22;38.83;;;;;;;1.18;55.31;103723.92;1604989;87;25710;-76
2022/03/20 07:14:46;;;;;;;83.50;41.10;;;;;;;1.30;54.99;103726.17;1594847;87;26313;-74
2022/03/20 07:17:22;;;;;;;81.75;43.78;;;;;;;1.44;54.77;103728.33;1613434;88;27560;-76
2022/03/20 07:19:48;;;;;;;83.25;40.90;;;;;;;1.56;54.36;103722.65;1616836;88;25892;-76
2022/03/20 07:22:15;;;;;;;79.70;40.55;;;;;;;1.68;54.60;103718.25;1585902;88;25847;-76
2022/03/20 07:24:43;;;;;;;78.97;39.20;;;;;;;1.80;54.73;103716.93;1616472;87;26876;-75
2022/03/20 07:29:58;;;;;;;73.50;39.80;;;;;;;2.05;53.85;103708.06;1602406;87;27496;-76
2022/03/20 07:32:24;;;;;;;74.35;39.35;;;;;;;2.16;54.45;103715.14;1583847;88;26011;-76
2022/03/20 07:34:51;;;;;;;75.25;38.83;;;;;;;2.28;54.20;103717.34;1613915;87;26034;-77
2022/03/20 07:37:18;;;;;;;71.33;38.20;;;;;;;2.40;53.83;103709.84;1587828;90;26573;-76
2022/03/20 07:39:47;;;;;;;77.00;39.80;;;;;;;2.54;54.04;103708.87;1614840;88;25780;-76
2022/03/20 07:42:14;;;;;;;70.45;37.73;;;;;;;2.66;53.80;103718.52;1614500;88;27476;-77
2022/03/20 07:44:43;;;;;;;69.85;36.53;;;;;;;2.79;53.22;103718.89;1592846;89;25844;-76
2022/03/20 07:47:21;;;;;;;66.30;35.40;;;;;;;2.90;52.87;103720.66;1616627;88;25798;-75
2022/03/20 07:49:50;;;;;;;56.55;30.85;;;;;;;3.02;52.45;103718.82;1614364;88;25859;-76
2022/03/20 07:52:18;;;;;;;62.25;33.63;;;;;;;3.13;51.34;103714.83;1614225;88;25865;-76
2022/03/20 07:54:46;;;;;;;64.77;32.30;;;;;;;3.26;51.34;103719.14;1622163;85;28363;-79
2022/03/20 07:57:13;;;;;;;64.70;33.90;;;;;;;3.38;50.64;103713.33;1612073;87;25828;-79
2022/03/20 07:59:41;;;;;;;60.85;33.55;;;;;;;3.50;50.64;103711.95;1631727;87;25911;-79
2022/03/20 08:02:07;;;;;;;55.10;30.88;;;;;;;3.63;50.47;103707.85;1632762;87;25942;-78
2022/03/20 08:04:33;;;;;;;67.30;32.20;;;;;;;3.74;50.21;103702.45;1608175;88;25852;-79
2022/03/20 08:06:59;;;;;;;66.00;36.38;;;;;;;3.87;49.87;103701.48;1609006;88;27518;-79
2022/03/20 08:09:28;;;;;;;69.53;36.48;;;;;;;3.98;49.63;103696.53;1587725;88;26121;-77
2022/03/20 08:11:56;;;;;;;57.80;33.13;;;;;;;4.07;49.06;103696.59;1593430;89;26335;-77
2022/03/20 08:14:23;;;;;;;52.40;30.12;;;;;;;4.17;49.40;103696.59;1583437;89;25990;-76
2022/03/20 08:16:51;;;;;;;55.30;31.23;;;;;;;4.30;49.15;103702.56;1602456;89;26423;-77
2022/03/20 08:19:22;;;;;;;54.23;29.87;;;;;;;4.42;48.65;103702.02;1602602;89;27582;-77
2022/03/20 08:21:49;;;;;;;49.75;28.77;;;;;;;4.52;48.26;103700.64;1604324;87;26586;-76
2022/03/20 08:24:17;;;;;;;52.20;28.62;;;;;;;4.64;47.63;103713.81;1630144;86;25984;-77
2022/03/20 08:26:44;;;;;;;50.65;27.45;;;;;;;4.75;47.63;103715.95;1594953;88;26602;-76
2022/03/20 08:29:12;;;;;;;45.00;23.42;;;;;;;4.88;47.34;103721.04;1616421;88;25946;-76
2022/03/20 08:31:44;;;;;;;36.63;21.77;;;;;;;5.02;46.79;103713.28;1616350;88;27494;-75
2022/03/20 08:34:07;;;;;;;43.28;26.35;;;;;;;5.13;46.13;103718.44;1600161;88;26032;-76
2022/03/20 08:36:34;;;;;;;45.58;24.80;;;;;;;5.23;45.82;103713.08;1614202;88;25902;-76
2022/03/20 08:39:01;;;;;;;43.00;23.92;;;;;;;5.33;45.46;103718.32;1586940;90;25801;-76
2022/03/20 08:41:28;;;;;;;42.40;27.30;;;;;;;5.43;45.06;103717.40;1613527;88;26164;-76
2022/03/20 08:43:54;;;;;;;46.95;25.48;;;;;;;5.53;45.06;103711.13;1586614;88;27455;-76
2022/03/20 08:46:23;;;;;;;45.58;24.32;;;;;;;5.59;45.37;103711.67;1614738;88;52963;-76
2022/03/20 08:48:49;;;;;;;42.62;24.52;;;;;;;5.72;44.98;103711.89;1616548;88;25867;-76
2022/03/20 08:51:15;;;;;;;46.33;25.52;;;;;;;5.81;44.40;103712.30;1613849;88;26735;-75
2022/03/20 08:53:41;;;;;;;44.67;25.27;;;;;;;5.86;44.05;103704.94;1601859;88;26173;-76
2022/03/20 08:56:08;;;;;;;45.58;25.40;;;;;;;5.95;43.99;103704.47;1617546;86;28155;-76
2022/03/20 08:58:34;;;;;;;48.63;27.27;;;;;;;6.04;44.05;103699.99;1615998;88;26418;-75
2022/03/20 09:01:00;;;;;;;40.55;20.23;;;;;;;6.15;43.60;103701.61;1616058;87;26117;-77
2022/03/20 09:03:26;;;;;;;33.78;19.42;;;;;;;6.22;43.03;103698.98;1616262;88;26643;-76
2022/03/20 09:05:53;;;;;;;34.30;16.97;;;;;;;6.31;42.45;103703.44;1632421;86;25453;-76
2022/03/20 09:08:19;;;;;;;30.80;17.37;;;;;;;6.43;42.52;103692.11;1588302;87;28277;-75
2022/03/20 09:10:46;;;;;;;30.57;17.55;;;;;;;6.52;42.00;103685.78;1618734;88;25876;-77
2022/03/20 09:13:12;;;;;;;32.40;17.98;;;;;;;6.62;41.79;103690.13;1612253;88;25912;-76
2022/03/20 09:15:38;;;;;;;25.50;15.65;;;;;;;6.70;40.72;103690.55;1605518;87;25920;-76
2022/03/20 09:20:49;;;;;;;23.67;14.55;;;;;;;6.82;40.29;103685.89;1586911;90;27481;-76
2022/03/20 09:23:16;;;;;;;25.50;14.63;;;;;;;6.89;39.78;103689.43;1586451;90;25928;-77
2022/03/20 09:25:42;;;;;;;23.50;13.65;;;;;;;7.00;39.60;103684.81;1586523;88;26512;-77
2022/03/20 09:28:11;;;;;;;20.72;13.62;;;;;;;7.08;39.46;103688.38;1586950;90;26594;-76
2022/03/20 09:30:39;;;;;;;23.92;14.30;;;;;;;7.12;38.39;103686.75;1609782;87;25821;-77
2022/03/20 09:33:08;;;;;;;21.25;12.10;;;;;;;7.21;38.46;103684.02;1623707;87;27654;-77
2022/03/20 09:35:36;;;;;;;28.65;16.35;;;;;;;7.29;38.32;103690.63;1615856;87;25907;-77
2022/03/20 09:38:07;;;;;;;26.07;16.97;;;;;;;7.36;37.18;103688.45;1620198;87;25875;-78
2022/03/20 09:40:36;;;;;;;23.27;14.07;;;;;;;7.42;38.23;103688.95;1616502;87;25934;-77
2022/03/20 09:43:04;;;;;;;24.45;13.72;;;;;;;7.51;37.21;103684.88;1619973;87;25867;-77
2022/03/20 09:45:30;;;;;;;27.85;14.70;;;;;;;7.57;37.43;103691.20;1616191;87;27586;-78
2022/03/20 09:47:57;;;;;;;26.87;14.38;;;;;;;7.64;38.02;103690.73;1616681;87;25370;-78
2022/03/20 09:50:24;;;;;;;24.43;13.25;;;;;;;7.74;37.14;103691.88;1616188;87;26551;-78
2022/03/20 09:52:50;;;;;;;20.72;13.00;;;;;;;7.79;37.45;103685.80;1616428;87;26067;-78
2022/03/20 09:55:16;;;;;;;21.23;12.15;;;;;;;7.88;36.83;103682.17;1614990;87;26335;-77
2022/03/20 09:57:43;;;;;;;21.15;11.83;;;;;;;7.93;36.56;103673.42;1612382;84;27481;-77
2022/03/20 10:00:15;;;;;;;18.02;10.60;;;;;;;7.99;36.41;103675.23;1619895;87;25859;-78
2022/03/20 10:02:41;;;;;;;18.77;11.83;;;;;;;8.05;36.20;103675.31;1614114;87;25893;-77
2022/03/20 10:05:09;;;;;;;21.17;10.72;;;;;;;8.12;35.93;103672.65;1615744;87;25847;-78
2022/03/20 10:07:40;;;;;;;17.57;11.10;;;;;;;8.21;35.70;103672.08;1589742;88;25999;-77
2022/03/20 10:10:12;;;;;;;;;;;;;;;8.30;34.81;103666.16;1612435;87;28293;-78
2022/03/20 10:12:49;;;;;;;37.17;17.45;;;;;;;8.33;34.04;103664.17;1608736;87;25845;-78
2022/03/20 10:15:41;;;;;;;17.80;12.03;;;;;;;8.37;32.98;103662.16;1590522;88;26629;-77
2022/03/20 10:18:15;;;;;;;19.57;11.28;;;;;;;8.41;33.78;103657.86;1562113;87;25891;-78
2022/03/20 10:20:52;;;;;;;20.17;10.78;;;;;;;8.49;34.38;103661.36;1606497;88;27178;-77
2022/03/20 10:23:38;;;;;;;109.12;44.80;;;;;;;8.57;34.67;103661.75;1587210;88;27498;-77
2022/03/20 10:26:09;;;;;;;37.98;20.32;;;;;;;8.63;33.92;103664.48;1610319;87;25960;-77
2022/03/20 10:28:47;;;;;;;25.50;13.20;;;;;;;8.65;33.80;103654.08;1616869;87;25889;-78
2022/03/20 10:31:17;;;;;;;16.77;11.65;;;;;;;8.68;33.49;103658.38;1622308;87;26616;-78
2022/03/20 10:33:46;;;;;;;23.47;15.28;;;;;;;8.74;33.88;103659.30;1615086;88;26478;-77
2022/03/20 10:36:23;;;;;;;21.12;13.28;;;;;;;8.81;33.02;103660.63;1617815;84;27573;-77
2022/03/20 10:38:51;;;;;;;22.90;13.53;;;;;;;8.87;33.37;103652.20;1638141;86;26495;-78
2022/03/20 10:41:25;;;;;;;23.67;12.07;;;;;;;8.92;33.48;103658.07;1647344;86;26539;-78
2022/03/20 10:43:55;;;;;;;19.15;12.53;;;;;;;8.93;33.61;103655.32;1652281;85;26523;-78
2022/03/20 10:46:27;;;;;;;20.43;12.20;;;;;;;8.96;34.04;103651.59;1643133;85;25964;-79
2022/03/20 10:48:57;;;;;;;20.52;12.37;;;;;;;9.03;33.76;103650.20;1641330;86;28346;-77
2022/03/20 10:51:41;;;;;;;17.77;11.68;;;;;;;9.07;33.47;103642.34;1644194;85;25951;-78
2022/03/20 10:54:22;;;;;;;17.30;12.05;;;;;;;9.14;33.53;103649.00;1640561;86;25879;-78
2022/03/20 10:56:59;;;;;;;22.20;12.13;;;;;;;9.17;33.40;103643.46;1637070;86;26587;-76
2022/03/20 10:59:27;;;;;;;20.88;12.58;;;;;;;9.24;32.69;103640.25;1658286;85;25922;-77
2022/03/20 11:01:54;;;;;;;22.20;12.95;;;;;;;9.28;33.34;103633.73;1648913;86;27420;-77
2022/03/20 11:04:25;;;;;;;19.98;12.23;;;;;;;9.34;32.42;103631.13;1643745;85;25824;-76
2022/03/20 11:07:03;;;;;;;21.17;14.25;;;;;;;9.36;32.75;103631.02;1655492;84;25830;-79
2022/03/20 11:09:28;;;;;;;17.42;11.10;;;;;;;9.43;31.58;103626.46;1654966;86;25904;-75
2022/03/20 11:11:59;;;;;;;21.20;11.95;;;;;;;9.46;32.36;103620.05;1646106;86;25829;-78
2022/03/20 11:14:27;;;;;;;;;;;;;;;9.47;32.44;103615.95;1641947;87;27473;-78
2022/03/20 11:17:06;;;;;;;19.90;11.15;;;;;;;9.51;32.05;103619.27;1646860;85;25761;-78
2022/03/20 11:19:35;;;;;;;17.23;10.68;;;;;;;9.57;32.76;103614.34;1655386;86;25808;-78
2022/03/20 11:22:06;;;;;;;20.37;12.03;;;;;;;9.65;32.27;103610.64;1643231;86;26486;-76
2022/03/20 11:24:33;;;;;;;19.95;10.88;;;;;;;9.66;31.86;103611.50;1637974;86;25946;-78
2022/03/20 11:27:02;;;;;;;15.23;10.20;;;;;;;9.65;30.91;103606.63;1643015;85;28425;-78
2022/03/20 11:29:33;;;;;;;20.05;10.40;;;;;;;9.63;32.07;103596.98;1641451;86;25963;-78
2022/03/20 11:32:00;;;;;;;;;;;;;;;9.64;30.89;103598.71;1643162;86;25852;-78
2022/03/20 11:34:28;;;;;;;14.38;9.45;;;;;;;9.65;31.21;103600.41;1645293;86;26554;-76
2022/03/20 11:37:09;;;;;;;15.08;10.35;;;;;;;9.69;31.05;103591.19;1627092;87;25808;-77
2022/03/20 11:39:38;;;;;;;17.42;10.88;;;;;;;9.74;31.57;103589.92;1643081;86;27663;-77
2022/03/20 11:42:28;;;;;;;17.07;11.15;;;;;;;9.85;31.78;103587.34;1646663;85;26034;-77
2022/03/20 11:45:06;;;;;;;22.02;11.68;;;;;;;9.94;31.56;103593.35;1622518;87;25892;-77
2022/03/20 11:47:41;;;;;;;18.30;10.88;;;;;;;9.99;30.50;103583.66;1642953;85;25759;-77